Private Wetterstation Sandau
Wetterdaten: Dienstag, 13.11.2012
Datum Zeit Temp. A. Feuchte A. Luftdruck Regen Wind Richtung Richtung Taupunkt Windchill
13.11.2012 00:01 4,6 C 86 % 1029,2 hPa 0,0 l/m 6,1 km/h (2 Bft) W-SW 247 2,5 C 3,2 C
13.11.2012 00:06 4,5 C 86 % 1029,3 hPa 0,0 l/m 1,8 km/h (1 Bft) S-SW 202 2,4 C 4,5 C
13.11.2012 00:11 4,4 C 86 % 1029,3 hPa 0,0 l/m 0,0 km/h (0 Bft) SW 225 2,3 C 4,4 C
13.11.2012 00:16 4,3 C 86 % 1029,2 hPa 0,0 l/m 0,0 km/h (0 Bft) SW 225 2,2 C 4,3 C
13.11.2012 00:21 4,1 C 86 % 1029,3 hPa 0,0 l/m 0,0 km/h (0 Bft) SW 225 2,0 C 4,1 C
13.11.2012 00:26 3,9 C 86 % 1029,5 hPa 0,0 l/m 0,0 km/h (0 Bft) W 270 1,8 C 3,9 C
13.11.2012 00:31 3,8 C 86 % 1029,3 hPa 0,0 l/m 1,8 km/h (1 Bft) SW 225 1,7 C 3,8 C
13.11.2012 00:36 3,6 C 86 % 1029,4 hPa 0,0 l/m 0,0 km/h (0 Bft) SW 225 1,5 C 3,6 C
13.11.2012 00:41 3,5 C 86 % 1029,7 hPa 0,0 l/m 2,2 km/h (1 Bft) SW 225 1,4 C 3,5 C
13.11.2012 00:46 3,3 C 86 % 1029,8 hPa 0,0 l/m 0,0 km/h (0 Bft) SW 225 1,2 C 3,3 C
13.11.2012 00:51 3,2 C 86 % 1029,9 hPa 0,0 l/m 0,0 km/h (0 Bft) SW 225 1,1 C 3,2 C
13.11.2012 00:56 3,0 C 86 % 1029,7 hPa 0,0 l/m 0,0 km/h (0 Bft) SW 225 0,9 C 3,0 C
13.11.2012 01:01 2,9 C 86 % 1029,8 hPa 0,0 l/m 0,0 km/h (0 Bft) SW 225 0,8 C 2,9 C
13.11.2012 01:06 2,8 C 86 % 1029,7 hPa 0,0 l/m 1,8 km/h (1 Bft) SW 225 0,7 C 2,8 C
13.11.2012 01:11 2,8 C 87 % 1029,8 hPa 0,0 l/m 2,2 km/h (1 Bft) SW 225 0,9 C 2,8 C
13.11.2012 01:16 2,7 C 87 % 1030,1 hPa 0,0 l/m 0,0 km/h (0 Bft) SW 225 0,8 C 2,7 C
13.11.2012 01:21 2,6 C 87 % 1029,9 hPa 0,0 l/m 0,0 km/h (0 Bft) SW 225 0,7 C 2,6 C
13.11.2012 01:26 2,5 C 87 % 1030,0 hPa 0,0 l/m 0,0 km/h (0 Bft) SW 225 0,6 C 2,5 C
13.11.2012 01:31 2,5 C 87 % 1030,0 hPa 0,0 l/m 1,4 km/h (1 Bft) SW 225 0,6 C 2,5 C
13.11.2012 01:36 2,5 C 88 % 1030,1 hPa 0,0 l/m 0,0 km/h (0 Bft) SW 225 0,7 C 2,5 C
13.11.2012 01:41 2,5 C 88 % 1030,0 hPa 0,0 l/m 1,8 km/h (1 Bft) SW 225 0,7 C 2,5 C
13.11.2012 01:46 2,5 C 88 % 1029,8 hPa 0,0 l/m 1,4 km/h (1 Bft) S-SW 202 0,7 C 2,5 C
13.11.2012 01:51 2,4 C 88 % 1029,9 hPa 0,0 l/m 2,5 km/h (1 Bft) S 180 0,6 C 2,4 C
13.11.2012 01:56 2,4 C 88 % 1030,1 hPa 0,0 l/m 1,8 km/h (1 Bft) S 180 0,6 C 2,4 C
13.11.2012 02:01 2,4 C 88 % 1030,1 hPa 0,0 l/m 0,0 km/h (0 Bft) S 180 0,6 C 2,4 C
13.11.2012 02:06 2,3 C 88 % 1030,2 hPa 0,0 l/m 0,0 km/h (0 Bft) S-SW 202 0,5 C 2,3 C
13.11.2012 02:11 2,2 C 88 % 1030,2 hPa 0,0 l/m 0,0 km/h (0 Bft) S-SW 202 0,4 C 2,2 C
13.11.2012 02:16 2,1 C 88 % 1030,1 hPa 0,0 l/m 0,0 km/h (0 Bft) S-SW 202 0,3 C 2,1 C
13.11.2012 02:21 2,1 C 88 % 1030,1 hPa 0,0 l/m 2,2 km/h (1 Bft) S 180 0,3 C 2,1 C
13.11.2012 02:26 2,1 C 89 % 1030,2 hPa 0,0 l/m 0,0 km/h (0 Bft) S 180 0,5 C 2,1 C
13.11.2012 02:31 2,1 C 89 % 1030,2 hPa 0,0 l/m 0,0 km/h (0 Bft) S 180 0,5 C 2,1 C
13.11.2012 02:36 1,9 C 89 % 1030,2 hPa 0,0 l/m 2,5 km/h (1 Bft) S-SW 202 0,3 C 1,9 C
13.11.2012 02:41 1,9 C 89 % 1030,4 hPa 0,0 l/m 0,0 km/h (0 Bft) S-SW 202 0,3 C 1,9 C
13.11.2012 02:46 1,9 C 89 % 1030,2 hPa 0,0 l/m 0,0 km/h (0 Bft) S-SW 202 0,3 C 1,9 C
13.11.2012 02:51 1,8 C 89 % 1030,2 hPa 0,0 l/m 0,0 km/h (0 Bft) S-SW 202 0,2 C 1,8 C
13.11.2012 02:56 1,8 C 89 % 1030,4 hPa 0,0 l/m 1,4 km/h (1 Bft) S 180 0,2 C 1,8 C
13.11.2012 03:01 1,8 C 89 % 1030,3 hPa 0,0 l/m 0,0 km/h (0 Bft) S 180 0,2 C 1,8 C
13.11.2012 03:06 1,8 C 89 % 1030,3 hPa 0,0 l/m 3,2 km/h (1 Bft) S 180 0,2 C 1,8 C
13.11.2012 03:11 1,8 C 90 % 1030,4 hPa 0,0 l/m 2,2 km/h (1 Bft) S 180 0,3 C 1,8 C
13.11.2012 03:16 1,9 C 90 % 1030,5 hPa 0,0 l/m 1,8 km/h (1 Bft) S 180 0,4 C 1,9 C
13.11.2012 03:21 1,9 C 90 % 1030,4 hPa 0,0 l/m 2,5 km/h (1 Bft) S 180 0,4 C 1,9 C
13.11.2012 03:26 1,9 C 90 % 1030,5 hPa 0,0 l/m 0,0 km/h (0 Bft) S 180 0,4 C 1,9 C
13.11.2012 03:31 1,9 C 90 % 1030,6 hPa 0,0 l/m 1,1 km/h (1 Bft) S 180 0,4 C 1,9 C
13.11.2012 03:36 1,9 C 90 % 1030,7 hPa 0,0 l/m 0,0 km/h (0 Bft) S 180 0,4 C 1,9 C
13.11.2012 03:41 1,8 C 90 % 1030,7 hPa 0,0 l/m 1,1 km/h (1 Bft) S-SO 157 0,3 C 1,8 C
13.11.2012 03:46 1,8 C 90 % 1030,7 hPa 0,0 l/m 4,0 km/h (1 Bft) S-SO 157 0,3 C 1,8 C
13.11.2012 03:51 1,8 C 90 % 1030,6 hPa 0,0 l/m 0,0 km/h (0 Bft) S 180 0,3 C 1,8 C
13.11.2012 03:56 1,8 C 90 % 1030,7 hPa 0,0 l/m 0,0 km/h (0 Bft) S-SO 157 0,3 C 1,8 C
13.11.2012 04:01 1,9 C 90 % 1030,8 hPa 0,0 l/m 1,8 km/h (1 Bft) S-SO 157 0,4 C 1,9 C
13.11.2012 04:06 1,8 C 90 % 1030,7 hPa 0,0 l/m 0,0 km/h (0 Bft) S-SO 157 0,3 C 1,8 C
13.11.2012 04:11 1,8 C 90 % 1030,8 hPa 0,0 l/m 0,0 km/h (0 Bft) S-SO 157 0,3 C 1,8 C
13.11.2012 04:16 1,8 C 90 % 1030,9 hPa 0,0 l/m 3,2 km/h (1 Bft) S-SO 157 0,3 C 1,8 C
13.11.2012 04:21 1,7 C 90 % 1030,8 hPa 0,0 l/m 2,2 km/h (1 Bft) S-SO 157 0,2 C 1,7 C
13.11.2012 04:26 1,6 C 90 % 1030,8 hPa 0,0 l/m 0,0 km/h (0 Bft) S-SO 157 0,1 C 1,6 C
13.11.2012 04:31 1,6 C 90 % 1030,8 hPa 0,0 l/m 2,5 km/h (1 Bft) S-SO 157 0,1 C 1,6 C
13.11.2012 04:36 1,6 C 90 % 1030,7 hPa 0,0 l/m 1,8 km/h (1 Bft) S-SW 202 0,1 C 1,6 C
13.11.2012 04:41 1,6 C 91 % 1030,8 hPa 0,0 l/m 2,5 km/h (1 Bft) S-SO 157 0,3 C 1,6 C
13.11.2012 04:46 1,5 C 91 % 1030,9 hPa 0,0 l/m 0,0 km/h (0 Bft) S-SO 157 0,2 C 1,5 C
13.11.2012 04:51 1,4 C 91 % 1030,8 hPa 0,0 l/m 3,6 km/h (1 Bft) S-SW 202 0,1 C 1,4 C
13.11.2012 04:56 1,4 C 91 % 1030,9 hPa 0,0 l/m 4,0 km/h (1 Bft) S 180 0,1 C 1,4 C
13.11.2012 05:01 1,4 C 91 % 1030,8 hPa 0,0 l/m 2,9 km/h (1 Bft) S-SO 157 0,1 C 1,4 C
13.11.2012 05:06 1,4 C 91 % 1030,8 hPa 0,0 l/m 0,0 km/h (0 Bft) S-SO 157 0,1 C 1,4 C
13.11.2012 05:11 1,4 C 91 % 1031,0 hPa 0,0 l/m 2,2 km/h (1 Bft) S-SO 157 0,1 C 1,4 C
13.11.2012 05:16 1,3 C 91 % 1031,1 hPa 0,0 l/m 0,0 km/h (0 Bft) S-SO 157 -0,0 C 1,3 C
13.11.2012 05:21 1,3 C 91 % 1031,1 hPa 0,0 l/m 3,2 km/h (1 Bft) S-SO 157 -0,0 C 1,3 C
13.11.2012 05:26 1,3 C 91 % 1031,1 hPa 0,0 l/m 2,2 km/h (1 Bft) SO 135 -0,0 C 1,3 C
13.11.2012 05:31 1,3 C 91 % 1031,2 hPa 0,0 l/m 0,0 km/h (0 Bft) S-SO 157 -0,0 C 1,3 C
13.11.2012 05:36 1,3 C 91 % 1031,2 hPa 0,0 l/m 1,1 km/h (1 Bft) S-SO 157 -0,0 C 1,3 C
13.11.2012 05:41 1,3 C 91 % 1031,1 hPa 0,0 l/m 2,5 km/h (1 Bft) S 180 -0,0 C 1,3 C
13.11.2012 05:46 1,3 C 91 % 1030,9 hPa 0,0 l/m 3,2 km/h (1 Bft) S-SO 157 -0,0 C 1,3 C
13.11.2012 05:51 1,3 C 91 % 1031,0 hPa 0,0 l/m 2,9 km/h (1 Bft) S-SO 157 -0,0 C 1,3 C
13.11.2012 05:56 1,3 C 91 % 1031,1 hPa 0,0 l/m 5,0 km/h (1 Bft) S-SO 157 -0,0 C -0,1 C
13.11.2012 06:01 1,3 C 91 % 1031,2 hPa 0,0 l/m 0,0 km/h (0 Bft) S-SO 157 -0,0 C 1,3 C
13.11.2012 06:06 1,3 C 91 % 1031,2 hPa 0,0 l/m 2,2 km/h (1 Bft) S-SO 157 -0,0 C 1,3 C
13.11.2012 06:11 1,3 C 91 % 1031,2 hPa 0,0 l/m 3,2 km/h (1 Bft) S-SO 157 -0,0 C 1,3 C
13.11.2012 06:16 1,3 C 91 % 1030,9 hPa 0,0 l/m 2,2 km/h (1 Bft) S-SO 157 -0,0 C 1,3 C
13.11.2012 06:21 1,3 C 91 % 1031,1 hPa 0,0 l/m 4,0 km/h (1 Bft) S-SO 157 -0,0 C 1,3 C
13.11.2012 06:26 1,3 C 91 % 1031,2 hPa 0,0 l/m 2,2 km/h (1 Bft) S 180 -0,0 C 1,3 C
13.11.2012 06:31 1,3 C 91 % 1031,2 hPa 0,0 l/m 3,2 km/h (1 Bft) S 180 -0,0 C 1,3 C
13.11.2012 06:36 1,2 C 91 % 1031,3 hPa 0,0 l/m 2,5 km/h (1 Bft) S-SO 157 -0,1 C 1,2 C
13.11.2012 06:41 1,1 C 91 % 1031,3 hPa 0,0 l/m 2,9 km/h (1 Bft) S-SO 157 -0,2 C 1,1 C
13.11.2012 06:46 1,1 C 91 % 1031,5 hPa 0,0 l/m 3,6 km/h (1 Bft) S 180 -0,2 C 1,1 C
13.11.2012 06:51 1,1 C 91 % 1031,3 hPa 0,0 l/m 3,2 km/h (1 Bft) S-SO 157 -0,2 C 1,1 C
13.11.2012 06:56 1,1 C 91 % 1031,5 hPa 0,0 l/m 2,2 km/h (1 Bft) S-SO 157 -0,2 C 1,1 C
13.11.2012 07:01 1,0 C 91 % 1031,5 hPa 0,0 l/m 5,4 km/h (1 Bft) S 180 -0,3 C -0,6 C
13.11.2012 07:06 1,0 C 91 % 1031,5 hPa 0,0 l/m 4,3 km/h (1 Bft) S-SO 157 -0,3 C 1,0 C
13.11.2012 07:11 0,9 C 91 % 1031,7 hPa 0,0 l/m 1,8 km/h (1 Bft) S-SO 157 -0,4 C 0,9 C
13.11.2012 07:16 0,9 C 91 % 1031,6 hPa 0,0 l/m 3,2 km/h (1 Bft) S-SO 157 -0,4 C 0,9 C
13.11.2012 07:21 0,9 C 91 % 1031,6 hPa 0,0 l/m 4,7 km/h (1 Bft) S 180 -0,4 C -0,4 C
13.11.2012 07:26 0,9 C 91 % 1031,9 hPa 0,0 l/m 3,6 km/h (1 Bft) S 180 -0,4 C 0,9 C
13.11.2012 07:31 0,9 C 91 % 1031,9 hPa 0,0 l/m 0,0 km/h (0 Bft) S-SO 157 -0,4 C 0,9 C
13.11.2012 07:36 0,9 C 91 % 1032,1 hPa 0,0 l/m 2,5 km/h (1 Bft) S-SO 157 -0,4 C 0,9 C
13.11.2012 07:41 0,9 C 91 % 1032,2 hPa 0,0 l/m 3,6 km/h (1 Bft) S-SO 157 -0,4 C 0,9 C
13.11.2012 07:46 0,9 C 91 % 1032,0 hPa 0,0 l/m 5,0 km/h (1 Bft) S 180 -0,4 C -0,6 C
13.11.2012 07:51 1,0 C 91 % 1032,3 hPa 0,0 l/m 2,9 km/h (1 Bft) SO 135 -0,3 C 1,0 C
13.11.2012 07:56 1,0 C 91 % 1032,4 hPa 0,0 l/m 2,2 km/h (1 Bft) S-SO 157 -0,3 C 1,0 C
13.11.2012 08:01 1,0 C 91 % 1032,5 hPa 0,0 l/m 3,2 km/h (1 Bft) S-SO 157 -0,3 C 1,0 C
13.11.2012 08:06 1,1 C 91 % 1032,6 hPa 0,0 l/m 2,5 km/h (1 Bft) S 180 -0,2 C 1,1 C
13.11.2012 08:11 1,1 C 91 % 1032,7 hPa 0,0 l/m 2,2 km/h (1 Bft) S-SO 157 -0,2 C 1,1 C
13.11.2012 08:16 1,1 C 91 % 1032,7 hPa 0,0 l/m 0,0 km/h (0 Bft) S 180 -0,2 C 1,1 C
13.11.2012 08:21 1,1 C 91 % 1032,8 hPa 0,0 l/m 0,0 km/h (0 Bft) S-SO 157 -0,2 C 1,1 C
13.11.2012 08:26 1,2 C 91 % 1032,7 hPa 0,0 l/m 2,5 km/h (1 Bft) S-SO 157 -0,1 C 1,2 C
13.11.2012 08:31 1,3 C 91 % 1032,9 hPa 0,0 l/m 2,9 km/h (1 Bft) S 180 -0,0 C 1,3 C
13.11.2012 08:36 1,3 C 91 % 1032,8 hPa 0,0 l/m 0,0 km/h (0 Bft) S 180 -0,0 C 1,3 C
13.11.2012 08:41 1,3 C 91 % 1033,0 hPa 0,0 l/m 2,5 km/h (1 Bft) S-SO 157 -0,0 C 1,3 C
13.11.2012 08:46 1,3 C 91 % 1033,1 hPa 0,0 l/m 0,0 km/h (0 Bft) S-SO 157 -0,0 C 1,3 C
13.11.2012 08:51 1,3 C 91 % 1033,0 hPa 0,0 l/m 2,5 km/h (1 Bft) S-SO 157 -0,0 C 1,3 C
13.11.2012 08:56 1,5 C 92 % 1033,1 hPa 0,0 l/m 5,0 km/h (1 Bft) S-SO 157 0,3 C 0,1 C
13.11.2012 09:01 1,6 C 92 % 1033,2 hPa 0,0 l/m 0,0 km/h (0 Bft) S-SW 202 0,4 C 1,6 C
13.11.2012 09:06 1,7 C 92 % 1033,3 hPa 0,0 l/m 4,0 km/h (1 Bft) S-SO 157 0,5 C 1,7 C
13.11.2012 09:11 1,9 C 92 % 1033,2 hPa 0,0 l/m 3,6 km/h (1 Bft) S-SO 157 0,7 C 1,9 C
13.11.2012 09:16 1,9 C 92 % 1033,2 hPa 0,0 l/m 1,4 km/h (1 Bft) S 180 0,7 C 1,9 C
13.11.2012 09:21 2,1 C 92 % 1033,4 hPa 0,0 l/m 2,5 km/h (1 Bft) S 180 0,9 C 2,1 C
13.11.2012 09:26 2,1 C 92 % 1033,4 hPa 0,0 l/m 5,8 km/h (2 Bft) S-SW 202 0,9 C 0,5 C
13.11.2012 09:31 2,3 C 92 % 1033,5 hPa 0,0 l/m 3,2 km/h (1 Bft) S 180 1,1 C 2,3 C
13.11.2012 09:36 2,3 C 92 % 1033,3 hPa 0,0 l/m 2,5 km/h (1 Bft) S 180 1,1 C 2,3 C
13.11.2012 09:41 2,4 C 92 % 1033,3 hPa 0,0 l/m 2,5 km/h (1 Bft) S-SO 157 1,2 C 2,4 C
13.11.2012 09:46 2,6 C 92 % 1033,3 hPa 0,0 l/m 1,4 km/h (1 Bft) S-SO 157 1,4 C 2,6 C
13.11.2012 09:51 2,7 C 92 % 1033,3 hPa 0,0 l/m 5,0 km/h (1 Bft) S-SW 202 1,5 C 1,5 C
13.11.2012 09:56 2,9 C 92 % 1033,3 hPa 0,0 l/m 5,8 km/h (2 Bft) S 180 1,7 C 1,4 C
13.11.2012 10:01 3,0 C 92 % 1033,3 hPa 0,0 l/m 4,0 km/h (1 Bft) S 180 1,8 C 3,0 C
13.11.2012 10:06 3,1 C 92 % 1033,4 hPa 0,0 l/m 0,0 km/h (0 Bft) S-SW 202 1,9 C 3,1 C
13.11.2012 10:11 3,3 C 92 % 1033,6 hPa 0,0 l/m 5,4 km/h (1 Bft) S-SO 157 2,1 C 2,0 C
13.11.2012 10:16 3,4 C 92 % 1033,6 hPa 0,0 l/m 2,9 km/h (1 Bft) SO 135 2,2 C 3,4 C
13.11.2012 10:21 3,6 C 92 % 1033,5 hPa 0,0 l/m 0,0 km/h (0 Bft) S-SW 202 2,4 C 3,6 C
13.11.2012 10:26 3,8 C 92 % 1033,4 hPa 0,0 l/m 4,7 km/h (1 Bft) S 180 2,6 C 2,8 C
13.11.2012 10:31 3,9 C 92 % 1033,4 hPa 0,0 l/m 3,2 km/h (1 Bft) S 180 2,7 C 3,9 C
13.11.2012 10:36 4,1 C 92 % 1033,3 hPa 0,0 l/m 4,0 km/h (1 Bft) S 180 2,9 C 4,1 C
13.11.2012 10:41 4,2 C 92 % 1033,5 hPa 0,0 l/m 1,4 km/h (1 Bft) S-SO 157 3,0 C 4,2 C
13.11.2012 10:46 4,3 C 92 % 1033,6 hPa 0,0 l/m 1,4 km/h (1 Bft) S-SW 202 3,1 C 4,3 C
13.11.2012 10:51 4,4 C 91 % 1033,6 hPa 0,0 l/m 2,2 km/h (1 Bft) SO 135 3,1 C 4,4 C
13.11.2012 10:56 4,6 C 91 % 1033,7 hPa 0,0 l/m 2,2 km/h (1 Bft) S-SO 157 3,3 C 4,6 C
13.11.2012 11:01 4,8 C 91 % 1033,6 hPa 0,0 l/m 3,6 km/h (1 Bft) S-SO 157 3,5 C 4,8 C
13.11.2012 11:06 4,9 C 91 % 1033,5 hPa 0,0 l/m 2,5 km/h (1 Bft) S-SO 157 3,6 C 4,9 C
13.11.2012 11:11 5,1 C 91 % 1033,5 hPa 0,0 l/m 6,5 km/h (2 Bft) S-SO 157 3,8 C 3,7 C
13.11.2012 11:16 5,4 C 91 % 1033,6 hPa 0,0 l/m 4,0 km/h (1 Bft) S-SW 202 4,1 C 5,4 C
13.11.2012 11:21 5,6 C 90 % 1033,6 hPa 0,0 l/m 4,0 km/h (1 Bft) W 270 4,1 C 5,6 C
13.11.2012 11:26 5,8 C 90 % 1033,7 hPa 0,0 l/m 7,2 km/h (2 Bft) W-SW 247 4,3 C 4,3 C
13.11.2012 11:31 5,9 C 89 % 1033,7 hPa 0,0 l/m 2,2 km/h (1 Bft) S-SW 202 4,2 C 5,9 C
13.11.2012 11:36 6,2 C 89 % 1033,5 hPa 0,0 l/m 5,4 km/h (1 Bft) W-SW 247 4,5 C 5,3 C
13.11.2012 11:41 6,4 C 89 % 1033,7 hPa 0,0 l/m 4,7 km/h (1 Bft) S-SW 202 4,7 C 5,8 C
13.11.2012 11:46 6,7 C 88 % 1033,6 hPa 0,0 l/m 4,7 km/h (1 Bft) S-SO 157 4,9 C 6,1 C
13.11.2012 11:51 6,9 C 87 % 1033,6 hPa 0,0 l/m 4,7 km/h (1 Bft) SW 225 4,9 C 6,3 C
13.11.2012 11:56 7,2 C 86 % 1033,6 hPa 0,0 l/m 3,6 km/h (1 Bft) S-SW 202 5,0 C 7,2 C
13.11.2012 12:01 7,3 C 85 % 1033,5 hPa 0,0 l/m 4,7 km/h (1 Bft) SW 225 4,9 C 6,8 C
13.11.2012 12:06 7,4 C 85 % 1033,7 hPa 0,0 l/m 1,4 km/h (1 Bft) SW 225 5,0 C 7,4 C
13.11.2012 12:11 7,6 C 84 % 1033,4 hPa 0,0 l/m 3,6 km/h (1 Bft) S-SO 157 5,1 C 7,6 C
13.11.2012 12:16 7,6 C 84 % 1033,4 hPa 0,0 l/m 7,9 km/h (2 Bft) S-SW 202 5,1 C 6,2 C
13.11.2012 12:21 7,8 C 83 % 1033,3 hPa 0,0 l/m 2,2 km/h (1 Bft) S-SO 157 5,1 C 7,8 C
13.11.2012 12:26 7,8 C 83 % 1033,5 hPa 0,0 l/m 2,9 km/h (1 Bft) S-SW 202 5,1 C 7,8 C
13.11.2012 12:31 7,9 C 83 % 1033,5 hPa 0,0 l/m 3,6 km/h (1 Bft) S-SW 202 5,2 C 7,9 C
13.11.2012 12:36 8,1 C 82 % 1033,5 hPa 0,0 l/m 7,6 km/h (2 Bft) S-SW 202 5,2 C 6,9 C
13.11.2012 12:41 8,2 C 82 % 1033,6 hPa 0,0 l/m 4,7 km/h (1 Bft) S-SW 202 5,3 C 7,8 C
13.11.2012 12:46 8,4 C 82 % 1033,4 hPa 0,0 l/m 4,0 km/h (1 Bft) S-SW 202 5,5 C 8,4 C
13.11.2012 12:51 8,5 C 81 % 1033,5 hPa 0,0 l/m 4,0 km/h (1 Bft) S-SO 157 5,4 C 8,5 C
13.11.2012 12:56 8,6 C 80 % 1033,3 hPa 0,0 l/m 4,7 km/h (1 Bft) S 180 5,3 C 8,3 C
13.11.2012 13:01 8,9 C 80 % 1033,4 hPa 0,0 l/m 2,9 km/h (1 Bft) S 180 5,6 C 8,9 C
13.11.2012 13:06 9,1 C 79 % 1033,4 hPa 0,0 l/m 7,6 km/h (2 Bft) SW 225 5,7 C 8,0 C
13.11.2012 13:11 9,2 C 78 % 1033,3 hPa 0,0 l/m 9,0 km/h (2 Bft) SW 225 5,6 C 7,9 C
13.11.2012 13:16 9,3 C 77 % 1033,2 hPa 0,0 l/m 11,5 km/h (2 Bft) SW 225 5,5 C 7,5 C
13.11.2012 13:21 9,3 C 77 % 1033,3 hPa 0,0 l/m 6,1 km/h (2 Bft) SW 225 5,5 C 8,6 C
13.11.2012 13:26 9,4 C 77 % 1033,2 hPa 0,0 l/m 3,2 km/h (1 Bft) S 180 5,6 C 9,4 C
13.11.2012 13:31 9,5 C 76 % 1033,2 hPa 0,0 l/m 10,1 km/h (2 Bft) S-SW 202 5,5 C 8,0 C
13.11.2012 13:36 9,6 C 76 % 1033,2 hPa 0,0 l/m 8,6 km/h (2 Bft) SW 225 5,6 C 8,4 C
13.11.2012 13:41 9,6 C 76 % 1033,1 hPa 0,0 l/m 5,8 km/h (2 Bft) S 180 5,6 C 9,1 C
13.11.2012 13:46 9,8 C 75 % 1033,1 hPa 0,0 l/m 4,3 km/h (1 Bft) S-SW 202 5,6 C 9,8 C
13.11.2012 13:51 9,8 C 75 % 1033,1 hPa 0,0 l/m 10,4 km/h (2 Bft) SW 225 5,6 C 8,3 C
13.11.2012 13:56 9,9 C 75 % 1033,1 hPa 0,0 l/m 4,0 km/h (1 Bft) S 180 5,7 C 9,9 C
13.11.2012 14:01 9,9 C 74 % 1033,0 hPa 0,0 l/m 5,4 km/h (1 Bft) S-SW 202 5,5 C 9,5 C
13.11.2012 14:06 9,9 C 74 % 1033,1 hPa 0,0 l/m 10,1 km/h (2 Bft) SW 225 5,5 C 8,5 C
13.11.2012 14:11 9,9 C 72 % 1033,0 hPa 0,0 l/m 4,3 km/h (1 Bft) SO 135 5,1 C 9,9 C
13.11.2012 14:16 9,8 C 71 % 1033,0 hPa 0,0 l/m 5,0 km/h (1 Bft) S-SW 202 4,8 C 9,5 C
13.11.2012 14:21 9,8 C 72 % 1033,0 hPa 0,0 l/m 12,6 km/h (3 Bft) S 180 5,0 C 8,0 C
13.11.2012 14:26 9,8 C 72 % 1033,0 hPa 0,0 l/m 1,4 km/h (1 Bft) S-SW 202 5,0 C 9,8 C
13.11.2012 14:31 9,8 C 72 % 1033,0 hPa 0,0 l/m 7,2 km/h (2 Bft) SW 225 5,0 C 8,9 C
13.11.2012 14:36 9,8 C 72 % 1032,9 hPa 0,0 l/m 5,4 km/h (1 Bft) S-SW 202 5,0 C 9,4 C
13.11.2012 14:41 9,8 C 73 % 1032,8 hPa 0,0 l/m 5,8 km/h (2 Bft) S-SW 202 5,2 C 9,3 C
13.11.2012 14:46 9,9 C 73 % 1032,8 hPa 0,0 l/m 5,8 km/h (2 Bft) S-SW 202 5,3 C 9,4 C
13.11.2012 14:51 9,9 C 73 % 1032,7 hPa 0,0 l/m 4,0 km/h (1 Bft) S 180 5,3 C 9,9 C
13.11.2012 14:56 9,9 C 73 % 1032,9 hPa 0,0 l/m 7,6 km/h (2 Bft) S-SO 157 5,3 C 9,0 C
13.11.2012 15:01 9,8 C 72 % 1032,8 hPa 0,0 l/m 5,4 km/h (1 Bft) S 180 5,0 C 9,4 C
13.11.2012 15:06 9,8 C 72 % 1032,9 hPa 0,0 l/m 4,7 km/h (1 Bft) S-SW 202 5,0 C 9,6 C
13.11.2012 15:11 9,6 C 73 % 1032,8 hPa 0,0 l/m 4,7 km/h (1 Bft) S-SO 157 5,0 C 9,4 C
13.11.2012 15:16 9,5 C 73 % 1033,0 hPa 0,0 l/m 3,6 km/h (1 Bft) SW 225 4,9 C 9,5 C
13.11.2012 15:21 9,4 C 73 % 1033,0 hPa 0,0 l/m 4,0 km/h (1 Bft) S 180 4,8 C 9,4 C
13.11.2012 15:26 9,2 C 73 % 1032,9 hPa 0,0 l/m 10,1 km/h (2 Bft) S-SW 202 4,6 C 7,7 C
13.11.2012 15:31 8,9 C 73 % 1033,0 hPa 0,0 l/m 2,2 km/h (1 Bft) S-SO 157 4,3 C 8,9 C
13.11.2012 15:36 8,7 C 73 % 1033,1 hPa 0,0 l/m 3,2 km/h (1 Bft) SO 135 4,1 C 8,7 C
13.11.2012 15:41 8,5 C 74 % 1032,9 hPa 0,0 l/m 2,9 km/h (1 Bft) S-SO 157 4,1 C 8,5 C
13.11.2012 15:46 8,3 C 74 % 1033,1 hPa 0,0 l/m 0,0 km/h (0 Bft) S-SO 157 3,9 C 8,3 C
13.11.2012 15:51 8,1 C 75 % 1033,1 hPa 0,0 l/m 3,6 km/h (1 Bft) S-SO 157 3,9 C 8,1 C
13.11.2012 15:56 7,9 C 75 % 1033,1 hPa 0,0 l/m 0,0 km/h (0 Bft) S 180 3,7 C 7,9 C
13.11.2012 16:01 7,6 C 76 % 1033,2 hPa 0,0 l/m 3,6 km/h (1 Bft) S-SO 157 3,6 C 7,6 C
13.11.2012 16:06 7,4 C 76 % 1033,2 hPa 0,0 l/m 2,9 km/h (1 Bft) SO 135 3,5 C 7,4 C
13.11.2012 16:11 7,2 C 76 % 1033,2 hPa 0,0 l/m 3,6 km/h (1 Bft) S-SO 157 3,3 C 7,2 C
13.11.2012 16:16 7,0 C 77 % 1033,1 hPa 0,0 l/m 2,5 km/h (1 Bft) SO 135 3,2 C 7,0 C
13.11.2012 16:21 6,9 C 77 % 1033,2 hPa 0,0 l/m 3,2 km/h (1 Bft) S 180 3,2 C 6,9 C
13.11.2012 16:26 6,7 C 78 % 1033,1 hPa 0,0 l/m 2,2 km/h (1 Bft) SO 135 3,1 C 6,7 C
13.11.2012 16:31 6,5 C 78 % 1033,2 hPa 0,0 l/m 2,2 km/h (1 Bft) S-SO 157 2,9 C 6,5 C
13.11.2012 16:36 6,3 C 78 % 1033,0 hPa 0,0 l/m 2,2 km/h (1 Bft) S-SO 157 2,8 C 6,3 C
13.11.2012 16:41 6,2 C 79 % 1033,0 hPa 0,0 l/m 0,0 km/h (0 Bft) S-SO 157 2,8 C 6,2 C
13.11.2012 16:46 6,1 C 79 % 1033,1 hPa 0,0 l/m 2,9 km/h (1 Bft) SO 135 2,7 C 6,1 C
13.11.2012 16:51 5,9 C 80 % 1033,1 hPa 0,0 l/m 5,8 km/h (2 Bft) S-SO 157 2,7 C 4,8 C
13.11.2012 16:56 5,8 C 80 % 1033,0 hPa 0,0 l/m 3,2 km/h (1 Bft) SO 135 2,6 C 5,8 C
13.11.2012 17:01 5,8 C 81 % 1033,1 hPa 0,0 l/m 3,6 km/h (1 Bft) SO 135 2,8 C 5,8 C
13.11.2012 17:06 5,6 C 81 % 1033,1 hPa 0,0 l/m 0,0 km/h (0 Bft) SO 135 2,6 C 5,6 C
13.11.2012 17:11 5,6 C 81 % 1033,1 hPa 0,0 l/m 0,0 km/h (0 Bft) S-SO 157 2,6 C 5,6 C
13.11.2012 17:16 5,5 C 81 % 1033,1 hPa 0,0 l/m 4,0 km/h (1 Bft) S-SO 157 2,5 C 5,5 C
13.11.2012 17:21 5,4 C 81 % 1033,1 hPa 0,0 l/m 2,2 km/h (1 Bft) S-SO 157 2,4 C 5,4 C
13.11.2012 17:26 5,3 C 81 % 1033,1 hPa 0,0 l/m 2,2 km/h (1 Bft) S-SO 157 2,3 C 5,3 C
13.11.2012 17:31 5,2 C 82 % 1033,1 hPa 0,0 l/m 4,0 km/h (1 Bft) SO 135 2,4 C 5,2 C
13.11.2012 17:36 5,2 C 82 % 1033,1 hPa 0,0 l/m 3,6 km/h (1 Bft) SO 135 2,4 C 5,2 C
13.11.2012 17:41 5,1 C 82 % 1033,2 hPa 0,0 l/m 2,2 km/h (1 Bft) SO 135 2,3 C 5,1 C
13.11.2012 17:46 5,1 C 82 % 1033,1 hPa 0,0 l/m 2,9 km/h (1 Bft) S-SO 157 2,3 C 5,1 C
13.11.2012 17:51 4,9 C 82 % 1033,1 hPa 0,0 l/m 1,4 km/h (1 Bft) SO 135 2,1 C 4,9 C
13.11.2012 17:56 4,9 C 82 % 1033,2 hPa 0,0 l/m 1,1 km/h (1 Bft) SO 135 2,1 C 4,9 C
13.11.2012 18:01 4,8 C 83 % 1033,1 hPa 0,0 l/m 0,0 km/h (0 Bft) SO 135 2,2 C 4,8 C
13.11.2012 18:06 4,7 C 83 % 1033,1 hPa 0,0 l/m 2,2 km/h (1 Bft) S-SO 157 2,1 C 4,7 C
13.11.2012 18:11 4,5 C 83 % 1033,2 hPa 0,0 l/m 0,0 km/h (0 Bft) S-SO 157 1,9 C 4,5 C
13.11.2012 18:16 4,4 C 83 % 1033,3 hPa 0,0 l/m 0,0 km/h (0 Bft) S-SO 157 1,8 C 4,4 C
13.11.2012 18:21 4,4 C 83 % 1033,3 hPa 0,0 l/m 0,0 km/h (0 Bft) S 180 1,8 C 4,4 C
13.11.2012 18:26 4,3 C 83 % 1033,4 hPa 0,0 l/m 2,2 km/h (1 Bft) S-SO 157 1,7 C 4,3 C
13.11.2012 18:31 4,1 C 83 % 1033,3 hPa 0,0 l/m 1,8 km/h (1 Bft) S-SO 157 1,5 C 4,1 C
13.11.2012 18:36 4,1 C 83 % 1033,2 hPa 0,0 l/m 1,4 km/h (1 Bft) S-SO 157 1,5 C 4,1 C
13.11.2012 18:41 3,9 C 84 % 1033,3 hPa 0,0 l/m 0,0 km/h (0 Bft) S-SO 157 1,4 C 3,9 C
13.11.2012 18:46 3,9 C 84 % 1033,3 hPa 0,0 l/m 0,0 km/h (0 Bft) S-SO 157 1,4 C 3,9 C
13.11.2012 18:51 3,8 C 84 % 1033,3 hPa 0,0 l/m 2,2 km/h (1 Bft) S-SO 157 1,4 C 3,8 C
13.11.2012 18:56 3,6 C 84 % 1033,3 hPa 0,0 l/m 1,1 km/h (1 Bft) S-SO 157 1,2 C 3,6 C
13.11.2012 19:01 3,6 C 84 % 1033,3 hPa 0,0 l/m 2,5 km/h (1 Bft) S-SO 157 1,2 C 3,6 C
13.11.2012 19:06 3,5 C 85 % 1033,3 hPa 0,0 l/m 2,2 km/h (1 Bft) SO 135 1,2 C 3,5 C
13.11.2012 19:11 3,4 C 84 % 1033,3 hPa 0,0 l/m 3,6 km/h (1 Bft) S-SO 157 1,0 C 3,4 C
13.11.2012 19:16 3,4 C 85 % 1033,4 hPa 0,0 l/m 4,3 km/h (1 Bft) S-SW 202 1,1 C 3,4 C
13.11.2012 19:21 3,4 C 85 % 1033,3 hPa 0,0 l/m 2,2 km/h (1 Bft) S-SO 157 1,1 C 3,4 C
13.11.2012 19:26 3,4 C 85 % 1033,3 hPa 0,0 l/m 2,2 km/h (1 Bft) S-SO 157 1,1 C 3,4 C
13.11.2012 19:31 3,4 C 86 % 1033,2 hPa 0,0 l/m 5,4 km/h (1 Bft) S 180 1,3 C 2,1 C
13.11.2012 19:36 3,4 C 86 % 1033,3 hPa 0,0 l/m 3,2 km/h (1 Bft) SO 135 1,3 C 3,4 C
13.11.2012 19:41 3,4 C 86 % 1033,3 hPa 0,0 l/m 2,9 km/h (1 Bft) S-SO 157 1,3 C 3,4 C
13.11.2012 19:46 3,4 C 86 % 1033,3 hPa 0,0 l/m 0,0 km/h (0 Bft) S-SO 157 1,3 C 3,4 C
13.11.2012 19:51 3,4 C 86 % 1033,3 hPa 0,0 l/m 2,2 km/h (1 Bft) S-SO 157 1,3 C 3,4 C
13.11.2012 19:56 3,3 C 86 % 1033,3 hPa 0,0 l/m 3,6 km/h (1 Bft) S-SO 157 1,2 C 3,3 C
13.11.2012 20:01 3,2 C 86 % 1033,4 hPa 0,0 l/m 3,2 km/h (1 Bft) SO 135 1,1 C 3,2 C
13.11.2012 20:06 3,1 C 86 % 1033,5 hPa 0,0 l/m 4,0 km/h (1 Bft) S-SO 157 1,0 C 3,1 C
13.11.2012 20:11 3,0 C 87 % 1033,4 hPa 0,0 l/m 0,0 km/h (0 Bft) SO 135 1,1 C 3,0 C
13.11.2012 20:16 3,1 C 87 % 1033,4 hPa 0,0 l/m 3,6 km/h (1 Bft) S-SO 157 1,2 C 3,1 C
13.11.2012 20:21 3,1 C 87 % 1033,3 hPa 0,0 l/m 3,2 km/h (1 Bft) S-SO 157 1,2 C 3,1 C
13.11.2012 20:26 3,2 C 87 % 1033,4 hPa 0,0 l/m 3,2 km/h (1 Bft) SO 135 1,2 C 3,2 C
13.11.2012 20:31 3,3 C 88 % 1033,4 hPa 0,0 l/m 4,7 km/h (1 Bft) SO 135 1,5 C 2,3 C
13.11.2012 20:36 3,4 C 88 % 1033,3 hPa 0,0 l/m 3,2 km/h (1 Bft) S-SO 157 1,6 C 3,4 C
13.11.2012 20:41 3,5 C 88 % 1033,4 hPa 0,0 l/m 3,2 km/h (1 Bft) S-SO 157 1,7 C 3,5 C
13.11.2012 20:46 3,5 C 88 % 1033,5 hPa 0,0 l/m 3,6 km/h (1 Bft) S-SO 157 1,7 C 3,5 C
13.11.2012 20:51 3,5 C 87 % 1033,7 hPa 0,0 l/m 3,6 km/h (1 Bft) S-SO 157 1,5 C 3,5 C
13.11.2012 20:56 3,5 C 87 % 1033,6 hPa 0,0 l/m 6,5 km/h (2 Bft) SO 135 1,5 C 1,8 C
13.11.2012 21:01 3,5 C 87 % 1033,6 hPa 0,0 l/m 4,3 km/h (1 Bft) S 180 1,5 C 3,5 C
13.11.2012 21:06 3,5 C 87 % 1033,7 hPa 0,0 l/m 4,3 km/h (1 Bft) S-SO 157 1,5 C 3,5 C
13.11.2012 21:11 3,5 C 87 % 1033,9 hPa 0,0 l/m 0,0 km/h (0 Bft) S-SO 157 1,5 C 3,5 C
13.11.2012 21:16 3,4 C 87 % 1033,8 hPa 0,0 l/m 0,0 km/h (0 Bft) S-SO 157 1,4 C 3,4 C
13.11.2012 21:21 3,2 C 87 % 1033,8 hPa 0,0 l/m 2,5 km/h (1 Bft) S-SO 157 1,2 C 3,2 C
13.11.2012 21:26 3,1 C 87 % 1033,8 hPa 0,0 l/m 2,9 km/h (1 Bft) S-SO 157 1,2 C 3,1 C
13.11.2012 21:31 3,0 C 87 % 1033,8 hPa 0,0 l/m 0,0 km/h (0 Bft) SO 135 1,1 C 3,0 C
13.11.2012 21:36 2,9 C 87 % 1034,0 hPa 0,0 l/m 0,0 km/h (0 Bft) SO 135 1,0 C 2,9 C
13.11.2012 21:41 2,9 C 87 % 1034,0 hPa 0,0 l/m 2,5 km/h (1 Bft) SO 135 1,0 C 2,9 C
13.11.2012 21:46 2,8 C 87 % 1034,1 hPa 0,0 l/m 0,0 km/h (0 Bft) O-SO 112 0,9 C 2,8 C
13.11.2012 21:51 2,8 C 88 % 1034,1 hPa 0,0 l/m 0,0 km/h (0 Bft) SO 135 1,0 C 2,8 C
13.11.2012 21:56 2,8 C 88 % 1034,0 hPa 0,0 l/m 0,0 km/h (0 Bft) SO 135 1,0 C 2,8 C
13.11.2012 22:01 2,8 C 88 % 1034,0 hPa 0,0 l/m 0,0 km/h (0 Bft) SO 135 1,0 C 2,8 C
13.11.2012 22:06 2,7 C 88 % 1033,8 hPa 0,0 l/m 0,0 km/h (0 Bft) O-SO 112 0,9 C 2,7 C
13.11.2012 22:11 2,6 C 88 % 1033,9 hPa 0,0 l/m 3,6 km/h (1 Bft) SO 135 0,8 C 2,6 C
13.11.2012 22:16 2,6 C 88 % 1033,8 hPa 0,0 l/m 0,0 km/h (0 Bft) SO 135 0,8 C 2,6 C
13.11.2012 22:21 2,6 C 88 % 1033,9 hPa 0,0 l/m 4,0 km/h (1 Bft) SO 135 0,8 C 2,6 C
13.11.2012 22:26 2,5 C 88 % 1033,9 hPa 0,0 l/m 2,2 km/h (1 Bft) SO 135 0,7 C 2,5 C
13.11.2012 22:31 2,4 C 88 % 1033,9 hPa 0,0 l/m 0,0 km/h (0 Bft) O-SO 112 0,6 C 2,4 C
13.11.2012 22:36 2,4 C 88 % 1033,8 hPa 0,0 l/m 0,0 km/h (0 Bft) O-SO 112 0,6 C 2,4 C
13.11.2012 22:41 2,3 C 88 % 1033,9 hPa 0,0 l/m 0,0 km/h (0 Bft) O-SO 112 0,5 C 2,3 C
13.11.2012 22:46 2,2 C 88 % 1033,9 hPa 0,0 l/m 0,0 km/h (0 Bft) SO 135 0,4 C 2,2 C
13.11.2012 22:51 2,1 C 88 % 1034,0 hPa 0,0 l/m 0,0 km/h (0 Bft) S-SO 157 0,3 C 2,1 C
13.11.2012 22:56 2,0 C 88 % 1033,8 hPa 0,0 l/m 1,1 km/h (1 Bft) S-SO 157 0,2 C 2,0 C
13.11.2012 23:01 1,9 C 88 % 1033,7 hPa 0,0 l/m 0,0 km/h (0 Bft) S-SO 157 0,1 C 1,9 C
13.11.2012 23:06 1,8 C 88 % 1033,8 hPa 0,0 l/m 0,0 km/h (0 Bft) S-SO 157 0,0 C 1,8 C
13.11.2012 23:11 1,8 C 88 % 1033,9 hPa 0,0 l/m 0,0 km/h (0 Bft) S-SO 157 0,0 C 1,8 C
13.11.2012 23:16 1,6 C 88 % 1034,0 hPa 0,0 l/m 2,9 km/h (1 Bft) O-SO 112 -0,2 C 1,6 C
13.11.2012 23:21 1,6 C 88 % 1034,0 hPa 0,0 l/m 0,0 km/h (0 Bft) O-SO 112 -0,2 C 1,6 C
13.11.2012 23:26 1,8 C 89 % 1034,0 hPa 0,0 l/m 2,5 km/h (1 Bft) SO 135 0,2 C 1,8 C
13.11.2012 23:31 1,8 C 89 % 1033,9 hPa 0,0 l/m 0,0 km/h (0 Bft) O-SO 112 0,2 C 1,8 C
13.11.2012 23:36 1,7 C 89 % 1033,9 hPa 0,0 l/m 0,0 km/h (0 Bft) SO 135 0,1 C 1,7 C
13.11.2012 23:41 1,6 C 89 % 1033,9 hPa 0,0 l/m 0,0 km/h (0 Bft) SO 135 -0,0 C 1,6 C
13.11.2012 23:46 1,6 C 89 % 1033,9 hPa 0,0 l/m 1,8 km/h (1 Bft) SO 135 -0,0 C 1,6 C
13.11.2012 23:51 1,6 C 89 % 1034,0 hPa 0,0 l/m 0,0 km/h (0 Bft) SO 135 -0,0 C 1,6 C
13.11.2012 23:56 1,5 C 89 % 1033,9 hPa 0,0 l/m 2,2 km/h (1 Bft) O-SO 112 -0,1 C 1,5 C
_ Min-Zeit 07:11 14:16 00:01 - 00:11 - - 07:11 07:01
Minimum _ 0,9 C 71 % 1029,2 hPa - 0,0 km/h (0 Bft) - - -0,4 C -0,6 C
_ Max-Zeit 13:56 08:56 21:46 00:01 14:21 - - 13:56 13:56
Maximum _ 9,9 C 92 % 1034,1 hPa 0,0 l/m 12,6 km/h
S (3 Bft)
- - 5,7 C 9,9 C
Durchschnitt _ 4,0 C 86 % 1032,5 hPa #0,0 l/m 2,6 km/h (1 Bft) S-SO - 1,8 C 3,8 C
(c) by David Heller